Blue Point, Illinois
Current Conditions -  °F | °C
As of 10:15 PM on Sunday 23 Nov 2014 (Local Time) from K1H2 Reporting Station
Overcast Overcast  
Wind Chill: 52°   Ceiling: 300
Heat Index: 52°   Visibility: NA
Dew Point: 50°   Wind: 13mph
Humidity: 93%   Direction: 220°SW
Pressure: 29.24"   Gusts: 17mph
Location:  39.1183°N, 88.6059°W
Report Text: K1H2 240415Z AUTO 22011G15KT OVC003 11/10 A2924 RMK AO2 T01130102 PWINO
Loading
Personal Weather Stations






























Interactive Weather Map New forecast layout! Learn more

10-Day Weather Forecast

Advertisements
Track Severe Weather on mobile